Ackley, Iowa
Current Conditions -  °F | °C
As of 9:35 AM on Saturday 22 Nov 2014 (Local Time) from KIFA Reporting Station
Light Snow Light Snow  
Wind Chill: 30°   Ceiling: 200
Heat Index: 37°   Visibility: 0.25mi
Dew Point: 36°   Wind: 10mph
Humidity: 97%   Direction: 210°SSW
Pressure: 29.84"   Gusts: NA
Location:  42.55°N, 93.05°W
Report Text: KIFA 221535Z AUTO 21009KT 1/4SM -SN OVC002 03/02 A2984 RMK AO2 T00270022
Loading
Personal Weather Stations






























Interactive Weather Map New forecast layout! Learn more

10-Day Weather Forecast

Advertisements
Track Severe Weather on mobile